sensor_id;sensor_type;location;lat;lon;timestamp;P1;durP1;ratioP1;P2;durP2;ratioP2
37477;SDS011;23334;54.316;10.182;2022-12-18T00:02:20;15.30;;;7.83;;
37477;SDS011;23334;54.316;10.182;2022-12-18T00:04:47;18.73;;;9.10;;
37477;SDS011;23334;54.316;10.182;2022-12-18T00:07:12;17.97;;;10.20;;
37477;SDS011;23334;54.316;10.182;2022-12-18T00:09:39;13.23;;;8.67;;
37477;SDS011;23334;54.316;10.182;2022-12-18T00:12:08;15.53;;;8.90;;
37477;SDS011;23334;54.316;10.182;2022-12-18T00:14:33;12.90;;;8.97;;
37477;SDS011;23334;54.316;10.182;2022-12-18T00:16:59;16.77;;;9.70;;
37477;SDS011;23334;54.316;10.182;2022-12-18T00:19:28;22.23;;;8.93;;
37477;SDS011;23334;54.316;10.182;2022-12-18T00:21:54;17.60;;;8.60;;
37477;SDS011;23334;54.316;10.182;2022-12-18T00:24:20;17.40;;;9.00;;
37477;SDS011;23334;54.316;10.182;2022-12-18T00:26:48;19.50;;;8.80;;
37477;SDS011;23334;54.316;10.182;2022-12-18T00:29:15;14.93;;;9.03;;
37477;SDS011;23334;54.316;10.182;2022-12-18T00:31:50;16.37;;;9.40;;
37477;SDS011;23334;54.316;10.182;2022-12-18T00:34:19;19.20;;;8.90;;
37477;SDS011;23334;54.316;10.182;2022-12-18T00:37:01;13.80;;;7.73;;
37477;SDS011;23334;54.316;10.182;2022-12-18T00:39:26;20.10;;;9.27;;
37477;SDS011;23334;54.316;10.182;2022-12-18T00:41:53;18.83;;;8.80;;
37477;SDS011;23334;54.316;10.182;2022-12-18T00:44:37;11.40;;;6.80;;
37477;SDS011;23334;54.316;10.182;2022-12-18T00:47:05;17.27;;;9.57;;
37477;SDS011;23334;54.316;10.182;2022-12-18T00:49:32;10.50;;;7.80;;
37477;SDS011;23334;54.316;10.182;2022-12-18T00:51:57;12.87;;;8.53;;
37477;SDS011;23334;54.316;10.182;2022-12-18T00:54:24;11.57;;;7.40;;
37477;SDS011;23334;54.316;10.182;2022-12-18T00:56:53;15.50;;;8.40;;
37477;SDS011;23334;54.316;10.182;2022-12-18T00:59:21;12.80;;;9.10;;
37477;SDS011;23334;54.316;10.182;2022-12-18T01:01:48;14.57;;;8.50;;
37477;SDS011;23334;54.316;10.182;2022-12-18T01:04:16;12.27;;;8.10;;
37477;SDS011;23334;54.316;10.182;2022-12-18T01:06:43;13.47;;;7.53;;
37477;SDS011;23334;54.316;10.182;2022-12-18T01:09:12;17.23;;;7.93;;
37477;SDS011;23334;54.316;10.182;2022-12-18T01:11:39;14.90;;;8.93;;
37477;SDS011;23334;54.316;10.182;2022-12-18T01:14:08;15.37;;;8.63;;
37477;SDS011;23334;54.316;10.182;2022-12-18T01:16:58;18.90;;;9.00;;
37477;SDS011;23334;54.316;10.182;2022-12-18T01:19:33;21.60;;;9.47;;
37477;SDS011;23334;54.316;10.182;2022-12-18T01:21:59;11.30;;;6.73;;
37477;SDS011;23334;54.316;10.182;2022-12-18T01:24:26;14.83;;;8.07;;
37477;SDS011;23334;54.316;10.182;2022-12-18T01:27:13;9.73;;;6.40;;
37477;SDS011;23334;54.316;10.182;2022-12-18T01:29:43;18.67;;;8.80;;
37477;SDS011;23334;54.316;10.182;2022-12-18T01:32:18;13.00;;;7.93;;
37477;SDS011;23334;54.316;10.182;2022-12-18T01:34:57;16.97;;;8.87;;
37477;SDS011;23334;54.316;10.182;2022-12-18T01:37:24;11.13;;;7.60;;
37477;SDS011;23334;54.316;10.182;2022-12-18T01:39:52;10.53;;;6.87;;
37477;SDS011;23334;54.316;10.182;2022-12-18T01:42:21;8.10;;;5.40;;
37477;SDS011;23334;54.316;10.182;2022-12-18T01:47:46;12.27;;;7.93;;
37477;SDS011;23334;54.316;10.182;2022-12-18T01:50:15;9.40;;;6.33;;
37477;SDS011;23334;54.316;10.182;2022-12-18T01:52:54;9.50;;;6.90;;
37477;SDS011;23334;54.316;10.182;2022-12-18T01:55:25;13.27;;;8.10;;
37477;SDS011;23334;54.316;10.182;2022-12-18T01:57:52;15.13;;;8.77;;
37477;SDS011;23334;54.316;10.182;2022-12-18T02:00:20;13.97;;;8.47;;
37477;SDS011;23334;54.316;10.182;2022-12-18T02:02:48;16.43;;;7.63;;
37477;SDS011;23334;54.316;10.182;2022-12-18T02:05:19;11.50;;;7.77;;
37477;SDS011;23334;54.316;10.182;2022-12-18T02:16:29;15.17;;;7.40;;
37477;SDS011;23334;54.316;10.182;2022-12-18T02:18:59;17.27;;;6.73;;
37477;SDS011;23334;54.316;10.182;2022-12-18T02:21:33;10.93;;;7.00;;
37477;SDS011;23334;54.316;10.182;2022-12-18T02:26:47;11.20;;;7.23;;
37477;SDS011;23334;54.316;10.182;2022-12-18T02:29:25;12.00;;;7.13;;
37477;SDS011;23334;54.316;10.182;2022-12-18T02:31:56;16.63;;;8.03;;
37477;SDS011;23334;54.316;10.182;2022-12-18T02:34:29;10.43;;;7.47;;
37477;SDS011;23334;54.316;10.182;2022-12-18T02:36:57;9.17;;;6.20;;
37477;SDS011;23334;54.316;10.182;2022-12-18T02:39:26;13.10;;;7.33;;
37477;SDS011;23334;54.316;10.182;2022-12-18T02:41:54;17.67;;;8.80;;
37477;SDS011;23334;54.316;10.182;2022-12-18T02:44:32;8.13;;;6.63;;
37477;SDS011;23334;54.316;10.182;2022-12-18T02:47:14;11.47;;;6.60;;
37477;SDS011;23334;54.316;10.182;2022-12-18T02:52:51;11.80;;;7.13;;
37477;SDS011;23334;54.316;10.182;2022-12-18T02:58:13;11.07;;;6.70;;
37477;SDS011;23334;54.316;10.182;2022-12-18T03:03:29;12.10;;;7.60;;
37477;SDS011;23334;54.316;10.182;2022-12-18T03:06:12;10.37;;;7.53;;
37477;SDS011;23334;54.316;10.182;2022-12-18T03:08:51;5.70;;;4.50;;
37477;SDS011;23334;54.316;10.182;2022-12-18T03:11:26;14.00;;;7.40;;
37477;SDS011;23334;54.316;10.182;2022-12-18T03:14:15;11.17;;;7.20;;
37477;SDS011;23334;54.316;10.182;2022-12-18T03:17:04;9.73;;;6.27;;
37477;SDS011;23334;54.316;10.182;2022-12-18T03:19:42;11.00;;;7.50;;
37477;SDS011;23334;54.316;10.182;2022-12-18T03:22:09;10.67;;;7.43;;
37477;SDS011;23334;54.316;10.182;2022-12-18T03:24:41;11.10;;;6.67;;
37477;SDS011;23334;54.316;10.182;2022-12-18T03:27:09;16.63;;;7.80;;
37477;SDS011;23334;54.316;10.182;2022-12-18T03:29:47;9.33;;;7.33;;
37477;SDS011;23334;54.316;10.182;2022-12-18T03:32:25;12.00;;;8.37;;
37477;SDS011;23334;54.316;10.182;2022-12-18T03:34:57;7.23;;;5.00;;
37477;SDS011;23334;54.316;10.182;2022-12-18T03:37:34;16.73;;;7.90;;
37477;SDS011;23334;54.316;10.182;2022-12-18T03:40:06;4.27;;;3.60;;
37477;SDS011;23334;54.316;10.182;2022-12-18T03:42:51;8.73;;;6.13;;
37477;SDS011;23334;54.316;10.182;2022-12-18T03:48:04;9.70;;;6.80;;
37477;SDS011;23334;54.316;10.182;2022-12-18T03:56:06;13.87;;;6.77;;
37477;SDS011;23334;54.316;10.182;2022-12-18T03:58:34;15.73;;;5.50;;
37477;SDS011;23334;54.316;10.182;2022-12-18T04:01:05;12.77;;;7.90;;
37477;SDS011;23334;54.316;10.182;2022-12-18T04:03:34;8.43;;;6.00;;
37477;SDS011;23334;54.316;10.182;2022-12-18T04:06:02;11.33;;;7.20;;
37477;SDS011;23334;54.316;10.182;2022-12-18T04:08:29;14.50;;;7.33;;
37477;SDS011;23334;54.316;10.182;2022-12-18T04:10:55;8.87;;;6.20;;
37477;SDS011;23334;54.316;10.182;2022-12-18T04:13:29;11.37;;;7.10;;
37477;SDS011;23334;54.316;10.182;2022-12-18T04:16:00;8.37;;;6.43;;
37477;SDS011;23334;54.316;10.182;2022-12-18T04:18:32;11.33;;;6.10;;
37477;SDS011;23334;54.316;10.182;2022-12-18T04:20:58;14.20;;;7.33;;
37477;SDS011;23334;54.316;10.182;2022-12-18T04:23:25;18.20;;;6.67;;
37477;SDS011;23334;54.316;10.182;2022-12-18T04:25:52;13.43;;;7.30;;
37477;SDS011;23334;54.316;10.182;2022-12-18T04:28:19;11.47;;;6.03;;
37477;SDS011;23334;54.316;10.182;2022-12-18T04:30:46;12.60;;;7.77;;
37477;SDS011;23334;54.316;10.182;2022-12-18T04:33:14;11.37;;;7.10;;
37477;SDS011;23334;54.316;10.182;2022-12-18T04:35:40;8.23;;;6.53;;
37477;SDS011;23334;54.316;10.182;2022-12-18T04:38:12;8.37;;;6.70;;
37477;SDS011;23334;54.316;10.182;2022-12-18T04:40:48;12.73;;;6.90;;
37477;SDS011;23334;54.316;10.182;2022-12-18T04:43:14;10.87;;;7.73;;
37477;SDS011;23334;54.316;10.182;2022-12-18T04:45:40;11.20;;;7.43;;
37477;SDS011;23334;54.316;10.182;2022-12-18T04:48:07;15.23;;;8.03;;
37477;SDS011;23334;54.316;10.182;2022-12-18T04:50:34;16.87;;;8.10;;
37477;SDS011;23334;54.316;10.182;2022-12-18T04:53:00;9.53;;;6.87;;
37477;SDS011;23334;54.316;10.182;2022-12-18T04:55:28;12.43;;;7.87;;
37477;SDS011;23334;54.316;10.182;2022-12-18T04:57:55;12.47;;;7.13;;
37477;SDS011;23334;54.316;10.182;2022-12-18T05:00:24;12.73;;;6.53;;
37477;SDS011;23334;54.316;10.182;2022-12-18T05:02:51;12.30;;;6.73;;
37477;SDS011;23334;54.316;10.182;2022-12-18T05:05:18;10.87;;;7.00;;
37477;SDS011;23334;54.316;10.182;2022-12-18T05:07:48;9.47;;;7.20;;
37477;SDS011;23334;54.316;10.182;2022-12-18T05:10:16;9.43;;;6.40;;
37477;SDS011;23334;54.316;10.182;2022-12-18T05:12:44;12.83;;;7.47;;
37477;SDS011;23334;54.316;10.182;2022-12-18T05:15:24;11.83;;;7.23;;
37477;SDS011;23334;54.316;10.182;2022-12-18T05:18:14;8.77;;;6.87;;
37477;SDS011;23334;54.316;10.182;2022-12-18T05:20:46;9.90;;;6.80;;
37477;SDS011;23334;54.316;10.182;2022-12-18T05:23:12;10.90;;;7.47;;
37477;SDS011;23334;54.316;10.182;2022-12-18T05:25:42;13.80;;;6.93;;
37477;SDS011;23334;54.316;10.182;2022-12-18T05:28:35;8.80;;;5.60;;
37477;SDS011;23334;54.316;10.182;2022-12-18T05:31:02;10.97;;;6.47;;
37477;SDS011;23334;54.316;10.182;2022-12-18T05:33:37;11.33;;;6.73;;
37477;SDS011;23334;54.316;10.182;2022-12-18T05:36:07;11.53;;;6.67;;
37477;SDS011;23334;54.316;10.182;2022-12-18T05:38:37;8.40;;;6.23;;
37477;SDS011;23334;54.316;10.182;2022-12-18T05:41:08;8.30;;;6.63;;
37477;SDS011;23334;54.316;10.182;2022-12-18T05:43:52;11.37;;;6.50;;
37477;SDS011;23334;54.316;10.182;2022-12-18T05:46:18;9.97;;;6.43;;
37477;SDS011;23334;54.316;10.182;2022-12-18T05:48:48;12.27;;;7.30;;
37477;SDS011;23334;54.316;10.182;2022-12-18T05:51:54;13.00;;;7.10;;
37477;SDS011;23334;54.316;10.182;2022-12-18T05:54:26;11.33;;;7.03;;
37477;SDS011;23334;54.316;10.182;2022-12-18T05:56:54;11.03;;;6.47;;
37477;SDS011;23334;54.316;10.182;2022-12-18T05:59:23;10.23;;;6.33;;
37477;SDS011;23334;54.316;10.182;2022-12-18T06:01:53;9.60;;;6.57;;
37477;SDS011;23334;54.316;10.182;2022-12-18T06:04:23;9.40;;;7.13;;
37477;SDS011;23334;54.316;10.182;2022-12-18T06:07:14;11.80;;;6.93;;
37477;SDS011;23334;54.316;10.182;2022-12-18T06:10:03;9.13;;;6.83;;
37477;SDS011;23334;54.316;10.182;2022-12-18T06:12:28;5.43;;;4.27;;
37477;SDS011;23334;54.316;10.182;2022-12-18T06:14:54;11.27;;;5.97;;
37477;SDS011;23334;54.316;10.182;2022-12-18T06:17:19;6.53;;;5.13;;
37477;SDS011;23334;54.316;10.182;2022-12-18T06:19:45;9.93;;;5.93;;
37477;SDS011;23334;54.316;10.182;2022-12-18T06:22:11;9.00;;;6.33;;
37477;SDS011;23334;54.316;10.182;2022-12-18T06:24:36;11.43;;;6.40;;
37477;SDS011;23334;54.316;10.182;2022-12-18T06:27:02;6.13;;;5.63;;
37477;SDS011;23334;54.316;10.182;2022-12-18T06:29:27;9.10;;;6.30;;
37477;SDS011;23334;54.316;10.182;2022-12-18T06:31:53;9.50;;;6.30;;
37477;SDS011;23334;54.316;10.182;2022-12-18T06:34:18;9.27;;;6.00;;
37477;SDS011;23334;54.316;10.182;2022-12-18T06:36:44;10.77;;;6.17;;
37477;SDS011;23334;54.316;10.182;2022-12-18T06:39:10;9.43;;;6.10;;
37477;SDS011;23334;54.316;10.182;2022-12-18T06:41:36;14.53;;;7.40;;
37477;SDS011;23334;54.316;10.182;2022-12-18T06:44:01;6.57;;;5.07;;
37477;SDS011;23334;54.316;10.182;2022-12-18T06:46:29;9.33;;;6.03;;
37477;SDS011;23334;54.316;10.182;2022-12-18T06:48:54;12.13;;;5.97;;
37477;SDS011;23334;54.316;10.182;2022-12-18T06:51:21;9.47;;;6.00;;
37477;SDS011;23334;54.316;10.182;2022-12-18T06:53:49;6.13;;;5.00;;
37477;SDS011;23334;54.316;10.182;2022-12-18T06:56:15;9.90;;;4.83;;
37477;SDS011;23334;54.316;10.182;2022-12-18T06:58:40;8.17;;;6.10;;
37477;SDS011;23334;54.316;10.182;2022-12-18T07:01:07;8.67;;;6.30;;
37477;SDS011;23334;54.316;10.182;2022-12-18T07:03:35;8.67;;;6.00;;
37477;SDS011;23334;54.316;10.182;2022-12-18T07:06:01;12.30;;;6.10;;
37477;SDS011;23334;54.316;10.182;2022-12-18T07:08:28;9.10;;;5.63;;
37477;SDS011;23334;54.316;10.182;2022-12-18T07:10:54;11.10;;;5.33;;
37477;SDS011;23334;54.316;10.182;2022-12-18T07:13:20;10.30;;;5.90;;
37477;SDS011;23334;54.316;10.182;2022-12-18T07:15:45;7.40;;;4.63;;
37477;SDS011;23334;54.316;10.182;2022-12-18T07:18:11;5.97;;;4.73;;
37477;SDS011;23334;54.316;10.182;2022-12-18T07:20:36;10.17;;;6.43;;
37477;SDS011;23334;54.316;10.182;2022-12-18T07:23:05;5.97;;;5.20;;
37477;SDS011;23334;54.316;10.182;2022-12-18T07:25:34;8.70;;;5.50;;
37477;SDS011;23334;54.316;10.182;2022-12-18T07:28:01;7.80;;;5.20;;
37477;SDS011;23334;54.316;10.182;2022-12-18T07:30:28;6.43;;;5.70;;
37477;SDS011;23334;54.316;10.182;2022-12-18T07:32:53;7.20;;;5.77;;
37477;SDS011;23334;54.316;10.182;2022-12-18T07:35:19;7.60;;;5.57;;
37477;SDS011;23334;54.316;10.182;2022-12-18T07:37:44;5.60;;;5.10;;
37477;SDS011;23334;54.316;10.182;2022-12-18T07:40:10;13.17;;;5.67;;
37477;SDS011;23334;54.316;10.182;2022-12-18T07:42:36;10.03;;;5.40;;
37477;SDS011;23334;54.316;10.182;2022-12-18T07:45:02;6.60;;;3.70;;
37477;SDS011;23334;54.316;10.182;2022-12-18T07:47:28;10.37;;;5.63;;
37477;SDS011;23334;54.316;10.182;2022-12-18T07:49:57;5.97;;;4.47;;
37477;SDS011;23334;54.316;10.182;2022-12-18T07:52:23;10.03;;;5.67;;
37477;SDS011;23334;54.316;10.182;2022-12-18T07:54:48;7.70;;;5.77;;
37477;SDS011;23334;54.316;10.182;2022-12-18T07:57:14;11.40;;;4.77;;
37477;SDS011;23334;54.316;10.182;2022-12-18T07:59:41;7.00;;;5.60;;
37477;SDS011;23334;54.316;10.182;2022-12-18T08:02:07;5.33;;;4.83;;
37477;SDS011;23334;54.316;10.182;2022-12-18T08:04:32;13.60;;;5.73;;
37477;SDS011;23334;54.316;10.182;2022-12-18T08:06:58;6.13;;;5.00;;
37477;SDS011;23334;54.316;10.182;2022-12-18T08:09:23;9.20;;;4.97;;
37477;SDS011;23334;54.316;10.182;2022-12-18T08:11:49;8.03;;;5.40;;
37477;SDS011;23334;54.316;10.182;2022-12-18T08:14:14;5.97;;;4.83;;
37477;SDS011;23334;54.316;10.182;2022-12-18T08:16:40;8.40;;;5.07;;
37477;SDS011;23334;54.316;10.182;2022-12-18T08:19:05;6.17;;;4.83;;
37477;SDS011;23334;54.316;10.182;2022-12-18T08:21:32;5.17;;;3.07;;
37477;SDS011;23334;54.316;10.182;2022-12-18T08:23:59;7.00;;;4.77;;
37477;SDS011;23334;54.316;10.182;2022-12-18T08:26:26;6.90;;;5.13;;
37477;SDS011;23334;54.316;10.182;2022-12-18T08:28:54;6.60;;;4.47;;
37477;SDS011;23334;54.316;10.182;2022-12-18T08:31:22;10.53;;;6.57;;
37477;SDS011;23334;54.316;10.182;2022-12-18T08:33:50;6.73;;;4.77;;
37477;SDS011;23334;54.316;10.182;2022-12-18T08:36:17;11.03;;;5.10;;
37477;SDS011;23334;54.316;10.182;2022-12-18T08:38:44;9.93;;;5.67;;
37477;SDS011;23334;54.316;10.182;2022-12-18T08:41:10;9.63;;;5.60;;
37477;SDS011;23334;54.316;10.182;2022-12-18T08:43:37;6.33;;;5.07;;
37477;SDS011;23334;54.316;10.182;2022-12-18T08:46:22;7.70;;;6.03;;
37477;SDS011;23334;54.316;10.182;2022-12-18T08:48:52;8.47;;;6.17;;
37477;SDS011;23334;54.316;10.182;2022-12-18T08:51:18;6.60;;;4.60;;
37477;SDS011;23334;54.316;10.182;2022-12-18T08:53:45;11.20;;;6.50;;
37477;SDS011;23334;54.316;10.182;2022-12-18T08:56:11;9.03;;;5.40;;
37477;SDS011;23334;54.316;10.182;2022-12-18T08:58:37;7.70;;;5.27;;
37477;SDS011;23334;54.316;10.182;2022-12-18T09:01:04;6.13;;;5.07;;
37477;SDS011;23334;54.316;10.182;2022-12-18T09:03:31;8.07;;;5.93;;
37477;SDS011;23334;54.316;10.182;2022-12-18T09:05:57;12.13;;;6.07;;
37477;SDS011;23334;54.316;10.182;2022-12-18T09:08:22;10.27;;;5.17;;
37477;SDS011;23334;54.316;10.182;2022-12-18T09:10:49;9.50;;;5.37;;
37477;SDS011;23334;54.316;10.182;2022-12-18T09:13:15;8.20;;;5.50;;
37477;SDS011;23334;54.316;10.182;2022-12-18T09:15:42;8.17;;;5.67;;
37477;SDS011;23334;54.316;10.182;2022-12-18T09:18:15;10.90;;;6.50;;
37477;SDS011;23334;54.316;10.182;2022-12-18T09:20:42;6.03;;;4.20;;
37477;SDS011;23334;54.316;10.182;2022-12-18T09:23:08;8.40;;;5.23;;
37477;SDS011;23334;54.316;10.182;2022-12-18T09:25:34;10.73;;;6.70;;
37477;SDS011;23334;54.316;10.182;2022-12-18T09:28:06;7.30;;;6.07;;
37477;SDS011;23334;54.316;10.182;2022-12-18T09:30:32;5.40;;;4.30;;
37477;SDS011;23334;54.316;10.182;2022-12-18T09:32:59;9.00;;;5.33;;
37477;SDS011;23334;54.316;10.182;2022-12-18T09:35:25;9.73;;;6.20;;
37477;SDS011;23334;54.316;10.182;2022-12-18T09:37:52;10.83;;;6.43;;
37477;SDS011;23334;54.316;10.182;2022-12-18T09:40:19;8.67;;;6.07;;
37477;SDS011;23334;54.316;10.182;2022-12-18T09:42:49;23.53;;;6.67;;
37477;SDS011;23334;54.316;10.182;2022-12-18T09:45:20;8.60;;;5.83;;
37477;SDS011;23334;54.316;10.182;2022-12-18T09:47:46;14.77;;;5.93;;
37477;SDS011;23334;54.316;10.182;2022-12-18T09:50:29;8.23;;;6.20;;
37477;SDS011;23334;54.316;10.182;2022-12-18T09:53:02;6.83;;;5.63;;
37477;SDS011;23334;54.316;10.182;2022-12-18T09:55:36;6.33;;;5.63;;
37477;SDS011;23334;54.316;10.182;2022-12-18T09:58:11;8.60;;;6.17;;
37477;SDS011;23334;54.316;10.182;2022-12-18T10:00:41;11.50;;;6.60;;
37477;SDS011;23334;54.316;10.182;2022-12-18T10:03:10;10.57;;;6.63;;
37477;SDS011;23334;54.316;10.182;2022-12-18T10:08:39;15.57;;;10.23;;
37477;SDS011;23334;54.316;10.182;2022-12-18T10:11:29;12.50;;;9.67;;
37477;SDS011;23334;54.316;10.182;2022-12-18T10:14:09;7.77;;;6.30;;
37477;SDS011;23334;54.316;10.182;2022-12-18T10:19:55;8.00;;;5.77;;
37477;SDS011;23334;54.316;10.182;2022-12-18T10:25:03;9.40;;;6.10;;
37477;SDS011;23334;54.316;10.182;2022-12-18T10:27:40;6.47;;;5.60;;
37477;SDS011;23334;54.316;10.182;2022-12-18T10:30:13;11.07;;;6.23;;
37477;SDS011;23334;54.316;10.182;2022-12-18T10:32:39;8.40;;;5.83;;
37477;SDS011;23334;54.316;10.182;2022-12-18T10:35:07;8.50;;;6.27;;
37477;SDS011;23334;54.316;10.182;2022-12-18T10:37:37;8.00;;;6.17;;
37477;SDS011;23334;54.316;10.182;2022-12-18T10:40:53;8.57;;;6.23;;
37477;SDS011;23334;54.316;10.182;2022-12-18T10:43:29;10.70;;;6.90;;
37477;SDS011;23334;54.316;10.182;2022-12-18T10:48:40;8.83;;;6.47;;
37477;SDS011;23334;54.316;10.182;2022-12-18T10:51:22;11.77;;;6.73;;
37477;SDS011;23334;54.316;10.182;2022-12-18T10:53:59;11.20;;;7.13;;
37477;SDS011;23334;54.316;10.182;2022-12-18T10:56:27;10.93;;;7.47;;
37477;SDS011;23334;54.316;10.182;2022-12-18T10:58:55;9.33;;;6.23;;
37477;SDS011;23334;54.316;10.182;2022-12-18T11:01:21;9.77;;;6.47;;
37477;SDS011;23334;54.316;10.182;2022-12-18T11:06:17;9.33;;;5.70;;
37477;SDS011;23334;54.316;10.182;2022-12-18T11:08:44;10.13;;;6.10;;
37477;SDS011;23334;54.316;10.182;2022-12-18T11:11:22;10.63;;;5.97;;
37477;SDS011;23334;54.316;10.182;2022-12-18T11:13:55;12.40;;;5.50;;
37477;SDS011;23334;54.316;10.182;2022-12-18T11:16:24;9.20;;;6.50;;
37477;SDS011;23334;54.316;10.182;2022-12-18T11:18:50;8.33;;;5.90;;
37477;SDS011;23334;54.316;10.182;2022-12-18T11:21:16;7.37;;;6.60;;
37477;SDS011;23334;54.316;10.182;2022-12-18T11:23:46;9.37;;;6.50;;
37477;SDS011;23334;54.316;10.182;2022-12-18T11:26:17;8.80;;;6.00;;
37477;SDS011;23334;54.316;10.182;2022-12-18T11:28:49;13.70;;;6.47;;
37477;SDS011;23334;54.316;10.182;2022-12-18T11:31:19;11.63;;;7.10;;
37477;SDS011;23334;54.316;10.182;2022-12-18T11:36:20;11.00;;;7.57;;
37477;SDS011;23334;54.316;10.182;2022-12-18T11:38:47;10.87;;;6.90;;
37477;SDS011;23334;54.316;10.182;2022-12-18T11:41:29;12.47;;;7.33;;
37477;SDS011;23334;54.316;10.182;2022-12-18T11:44:28;10.73;;;7.67;;
37477;SDS011;23334;54.316;10.182;2022-12-18T11:50:14;10.77;;;6.63;;
37477;SDS011;23334;54.316;10.182;2022-12-18T11:52:43;16.70;;;7.90;;
37477;SDS011;23334;54.316;10.182;2022-12-18T11:55:12;9.30;;;7.20;;
37477;SDS011;23334;54.316;10.182;2022-12-18T12:00:21;13.80;;;6.77;;
37477;SDS011;23334;54.316;10.182;2022-12-18T12:02:53;8.60;;;5.43;;
37477;SDS011;23334;54.316;10.182;2022-12-18T12:08:24;7.70;;;5.33;;
37477;SDS011;23334;54.316;10.182;2022-12-18T12:14:23;9.17;;;7.00;;
37477;SDS011;23334;54.316;10.182;2022-12-18T12:19:32;9.47;;;7.67;;
37477;SDS011;23334;54.316;10.182;2022-12-18T12:31:17;9.00;;;6.20;;
37477;SDS011;23334;54.316;10.182;2022-12-18T12:39:40;7.33;;;5.20;;
37477;SDS011;23334;54.316;10.182;2022-12-18T12:42:14;7.60;;;4.57;;
37477;SDS011;23334;54.316;10.182;2022-12-18T12:45:05;13.63;;;7.07;;
37477;SDS011;23334;54.316;10.182;2022-12-18T12:47:36;14.47;;;6.23;;
37477;SDS011;23334;54.316;10.182;2022-12-18T12:50:05;11.13;;;6.60;;
37477;SDS011;23334;54.316;10.182;2022-12-18T12:52:40;12.27;;;7.07;;
37477;SDS011;23334;54.316;10.182;2022-12-18T12:55:12;11.70;;;7.20;;
37477;SDS011;23334;54.316;10.182;2022-12-18T12:57:46;9.37;;;7.13;;
37477;SDS011;23334;54.316;10.182;2022-12-18T13:00:19;8.90;;;5.90;;
37477;SDS011;23334;54.316;10.182;2022-12-18T13:07:54;8.13;;;5.90;;
37477;SDS011;23334;54.316;10.182;2022-12-18T13:10:33;10.47;;;6.37;;
37477;SDS011;23334;54.316;10.182;2022-12-18T13:13:05;8.43;;;6.23;;
37477;SDS011;23334;54.316;10.182;2022-12-18T13:15:39;9.83;;;5.70;;
37477;SDS011;23334;54.316;10.182;2022-12-18T13:20:39;9.27;;;6.80;;
37477;SDS011;23334;54.316;10.182;2022-12-18T13:23:25;8.33;;;5.70;;
37477;SDS011;23334;54.316;10.182;2022-12-18T13:25:58;8.87;;;6.70;;
37477;SDS011;23334;54.316;10.182;2022-12-18T13:29:09;10.23;;;6.87;;
37477;SDS011;23334;54.316;10.182;2022-12-18T13:36:15;9.77;;;6.03;;
37477;SDS011;23334;54.316;10.182;2022-12-18T13:38:47;10.37;;;6.23;;
37477;SDS011;23334;54.316;10.182;2022-12-18T13:43:48;10.80;;;7.30;;
37477;SDS011;23334;54.316;10.182;2022-12-18T13:46:30;15.00;;;6.07;;
37477;SDS011;23334;54.316;10.182;2022-12-18T13:51:40;11.60;;;6.50;;
37477;SDS011;23334;54.316;10.182;2022-12-18T13:56:43;12.37;;;6.60;;
37477;SDS011;23334;54.316;10.182;2022-12-18T13:59:17;12.13;;;5.30;;
37477;SDS011;23334;54.316;10.182;2022-12-18T14:01:45;13.37;;;7.27;;
37477;SDS011;23334;54.316;10.182;2022-12-18T14:04:17;15.43;;;6.40;;
37477;SDS011;23334;54.316;10.182;2022-12-18T14:06:43;10.27;;;7.13;;
37477;SDS011;23334;54.316;10.182;2022-12-18T14:09:12;13.60;;;6.80;;
37477;SDS011;23334;54.316;10.182;2022-12-18T14:11:38;12.43;;;7.17;;
37477;SDS011;23334;54.316;10.182;2022-12-18T14:14:04;16.27;;;7.27;;
37477;SDS011;23334;54.316;10.182;2022-12-18T14:16:32;13.27;;;7.27;;
37477;SDS011;23334;54.316;10.182;2022-12-18T14:18:58;14.00;;;6.90;;
37477;SDS011;23334;54.316;10.182;2022-12-18T14:21:26;13.60;;;5.43;;
37477;SDS011;23334;54.316;10.182;2022-12-18T14:26:36;9.37;;;5.40;;
37477;SDS011;23334;54.316;10.182;2022-12-18T14:32:03;12.30;;;6.50;;
37477;SDS011;23334;54.316;10.182;2022-12-18T14:34:35;10.23;;;6.00;;
37477;SDS011;23334;54.316;10.182;2022-12-18T14:37:01;13.80;;;6.63;;
37477;SDS011;23334;54.316;10.182;2022-12-18T14:39:26;11.43;;;6.70;;
37477;SDS011;23334;54.316;10.182;2022-12-18T14:41:52;16.00;;;8.07;;
37477;SDS011;23334;54.316;10.182;2022-12-18T14:44:18;11.53;;;6.40;;
37477;SDS011;23334;54.316;10.182;2022-12-18T14:46:44;13.00;;;5.90;;
37477;SDS011;23334;54.316;10.182;2022-12-18T14:49:24;14.23;;;7.40;;
37477;SDS011;23334;54.316;10.182;2022-12-18T14:51:53;13.70;;;7.10;;
37477;SDS011;23334;54.316;10.182;2022-12-18T14:54:20;15.27;;;5.97;;
37477;SDS011;23334;54.316;10.182;2022-12-18T14:56:47;13.17;;;7.03;;
37477;SDS011;23334;54.316;10.182;2022-12-18T15:01:46;19.30;;;6.80;;
37477;SDS011;23334;54.316;10.182;2022-12-18T15:04:24;15.83;;;6.93;;
37477;SDS011;23334;54.316;10.182;2022-12-18T15:07:02;8.87;;;5.90;;
37477;SDS011;23334;54.316;10.182;2022-12-18T15:09:34;11.80;;;6.63;;
37477;SDS011;23334;54.316;10.182;2022-12-18T15:12:02;15.00;;;7.30;;
37477;SDS011;23334;54.316;10.182;2022-12-18T15:14:38;11.83;;;5.97;;
37477;SDS011;23334;54.316;10.182;2022-12-18T15:17:12;11.07;;;6.10;;
37477;SDS011;23334;54.316;10.182;2022-12-18T15:19:40;7.10;;;4.57;;
37477;SDS011;23334;54.316;10.182;2022-12-18T15:22:21;9.50;;;4.97;;
37477;SDS011;23334;54.316;10.182;2022-12-18T15:24:47;12.30;;;7.07;;
37477;SDS011;23334;54.316;10.182;2022-12-18T15:27:20;13.57;;;6.57;;
37477;SDS011;23334;54.316;10.182;2022-12-18T15:32:33;14.40;;;6.37;;
37477;SDS011;23334;54.316;10.182;2022-12-18T15:35:18;13.87;;;6.80;;
37477;SDS011;23334;54.316;10.182;2022-12-18T15:37:45;11.30;;;6.23;;
37477;SDS011;23334;54.316;10.182;2022-12-18T15:40:12;13.70;;;6.93;;
37477;SDS011;23334;54.316;10.182;2022-12-18T15:42:38;9.70;;;5.60;;
37477;SDS011;23334;54.316;10.182;2022-12-18T15:45:22;17.67;;;7.67;;
37477;SDS011;23334;54.316;10.182;2022-12-18T15:47:48;10.53;;;5.10;;
37477;SDS011;23334;54.316;10.182;2022-12-18T15:50:14;16.73;;;7.67;;
37477;SDS011;23334;54.316;10.182;2022-12-18T15:52:41;17.00;;;7.33;;
37477;SDS011;23334;54.316;10.182;2022-12-18T15:55:10;18.27;;;8.43;;
37477;SDS011;23334;54.316;10.182;2022-12-18T15:57:55;16.93;;;7.10;;
37477;SDS011;23334;54.316;10.182;2022-12-18T16:00:20;15.10;;;7.03;;
37477;SDS011;23334;54.316;10.182;2022-12-18T16:02:48;15.53;;;7.50;;
37477;SDS011;23334;54.316;10.182;2022-12-18T16:05:14;16.97;;;7.93;;
37477;SDS011;23334;54.316;10.182;2022-12-18T16:07:41;20.33;;;9.10;;
37477;SDS011;23334;54.316;10.182;2022-12-18T16:10:07;13.23;;;7.13;;
37477;SDS011;23334;54.316;10.182;2022-12-18T16:12:33;15.17;;;6.90;;
37477;SDS011;23334;54.316;10.182;2022-12-18T16:14:59;16.37;;;6.87;;
37477;SDS011;23334;54.316;10.182;2022-12-18T16:17:26;21.20;;;8.37;;
37477;SDS011;23334;54.316;10.182;2022-12-18T16:19:52;18.50;;;8.00;;
37477;SDS011;23334;54.316;10.182;2022-12-18T16:22:19;25.27;;;8.83;;
37477;SDS011;23334;54.316;10.182;2022-12-18T16:24:46;15.77;;;8.40;;
37477;SDS011;23334;54.316;10.182;2022-12-18T16:27:12;23.63;;;9.37;;
37477;SDS011;23334;54.316;10.182;2022-12-18T16:29:38;20.13;;;7.77;;
37477;SDS011;23334;54.316;10.182;2022-12-18T16:32:04;20.40;;;8.43;;
37477;SDS011;23334;54.316;10.182;2022-12-18T16:34:30;16.37;;;7.43;;